sensor_id;sensor_type;location;lat;lon;timestamp;P1;durP1;ratioP1;P2;durP2;ratioP2
7669;SDS011;3877;42.562;27.636;2023-03-04T00:01:59;21.57;;;15.87;;
7669;SDS011;3877;42.562;27.636;2023-03-04T00:04:26;20.37;;;15.43;;
7669;SDS011;3877;42.562;27.636;2023-03-04T00:06:53;25.80;;;16.37;;
7669;SDS011;3877;42.562;27.636;2023-03-04T00:09:21;25.13;;;16.90;;
7669;SDS011;3877;42.562;27.636;2023-03-04T00:11:48;24.67;;;17.87;;
7669;SDS011;3877;42.562;27.636;2023-03-04T00:14:16;25.60;;;17.10;;
7669;SDS011;3877;42.562;27.636;2023-03-04T00:16:44;24.57;;;17.07;;
7669;SDS011;3877;42.562;27.636;2023-03-04T00:19:13;22.03;;;15.13;;
7669;SDS011;3877;42.562;27.636;2023-03-04T00:21:40;18.43;;;14.10;;
7669;SDS011;3877;42.562;27.636;2023-03-04T00:24:07;23.77;;;14.97;;
7669;SDS011;3877;42.562;27.636;2023-03-04T00:26:34;24.07;;;15.23;;
7669;SDS011;3877;42.562;27.636;2023-03-04T00:29:01;21.40;;;15.27;;
7669;SDS011;3877;42.562;27.636;2023-03-04T00:31:30;23.60;;;15.97;;
7669;SDS011;3877;42.562;27.636;2023-03-04T00:33:57;20.87;;;15.23;;
7669;SDS011;3877;42.562;27.636;2023-03-04T00:36:24;25.17;;;14.50;;
7669;SDS011;3877;42.562;27.636;2023-03-04T00:38:51;22.70;;;15.40;;
7669;SDS011;3877;42.562;27.636;2023-03-04T00:41:18;22.53;;;16.70;;
7669;SDS011;3877;42.562;27.636;2023-03-04T00:43:45;24.50;;;15.77;;
7669;SDS011;3877;42.562;27.636;2023-03-04T00:46:13;27.37;;;16.40;;
7669;SDS011;3877;42.562;27.636;2023-03-04T00:48:41;26.07;;;16.97;;
7669;SDS011;3877;42.562;27.636;2023-03-04T00:51:08;25.30;;;17.37;;
7669;SDS011;3877;42.562;27.636;2023-03-04T00:53:35;25.10;;;18.67;;
7669;SDS011;3877;42.562;27.636;2023-03-04T00:56:03;25.93;;;18.87;;
7669;SDS011;3877;42.562;27.636;2023-03-04T00:58:30;29.30;;;19.37;;
7669;SDS011;3877;42.562;27.636;2023-03-04T01:00:57;26.63;;;20.10;;
7669;SDS011;3877;42.562;27.636;2023-03-04T01:03:24;28.70;;;21.13;;
7669;SDS011;3877;42.562;27.636;2023-03-04T01:05:56;29.87;;;20.47;;
7669;SDS011;3877;42.562;27.636;2023-03-04T01:08:24;28.03;;;20.03;;
7669;SDS011;3877;42.562;27.636;2023-03-04T01:10:51;30.23;;;19.90;;
7669;SDS011;3877;42.562;27.636;2023-03-04T01:13:18;28.27;;;19.80;;
7669;SDS011;3877;42.562;27.636;2023-03-04T01:15:45;30.87;;;20.30;;
7669;SDS011;3877;42.562;27.636;2023-03-04T01:18:13;29.13;;;19.70;;
7669;SDS011;3877;42.562;27.636;2023-03-04T01:20:40;33.87;;;20.07;;
7669;SDS011;3877;42.562;27.636;2023-03-04T01:23:09;28.70;;;19.90;;
7669;SDS011;3877;42.562;27.636;2023-03-04T01:25:36;30.10;;;20.27;;
7669;SDS011;3877;42.562;27.636;2023-03-04T01:28:03;35.50;;;20.23;;
7669;SDS011;3877;42.562;27.636;2023-03-04T01:30:30;30.67;;;20.10;;
7669;SDS011;3877;42.562;27.636;2023-03-04T01:32:58;30.63;;;20.43;;
7669;SDS011;3877;42.562;27.636;2023-03-04T01:35:25;31.10;;;20.33;;
7669;SDS011;3877;42.562;27.636;2023-03-04T01:37:52;30.97;;;21.67;;
7669;SDS011;3877;42.562;27.636;2023-03-04T01:40:20;33.00;;;21.03;;
7669;SDS011;3877;42.562;27.636;2023-03-04T01:42:48;32.47;;;22.00;;
7669;SDS011;3877;42.562;27.636;2023-03-04T01:45:17;32.30;;;21.97;;
7669;SDS011;3877;42.562;27.636;2023-03-04T01:47:45;33.00;;;23.20;;
7669;SDS011;3877;42.562;27.636;2023-03-04T01:50:16;32.93;;;22.37;;
7669;SDS011;3877;42.562;27.636;2023-03-04T01:52:47;33.30;;;23.07;;
7669;SDS011;3877;42.562;27.636;2023-03-04T01:55:15;32.90;;;23.50;;
7669;SDS011;3877;42.562;27.636;2023-03-04T01:57:46;28.73;;;20.27;;
7669;SDS011;3877;42.562;27.636;2023-03-04T02:00:17;27.73;;;20.67;;
7669;SDS011;3877;42.562;27.636;2023-03-04T02:02:56;30.80;;;21.53;;
7669;SDS011;3877;42.562;27.636;2023-03-04T02:05:25;32.63;;;20.90;;
7669;SDS011;3877;42.562;27.636;2023-03-04T02:07:53;32.00;;;21.17;;
7669;SDS011;3877;42.562;27.636;2023-03-04T02:10:22;30.63;;;21.37;;
7669;SDS011;3877;42.562;27.636;2023-03-04T02:12:52;38.97;;;24.50;;
7669;SDS011;3877;42.562;27.636;2023-03-04T02:15:21;44.70;;;25.50;;
7669;SDS011;3877;42.562;27.636;2023-03-04T02:17:50;38.50;;;26.60;;
7669;SDS011;3877;42.562;27.636;2023-03-04T02:20:24;40.63;;;27.60;;
7669;SDS011;3877;42.562;27.636;2023-03-04T02:23:04;43.00;;;28.00;;
7669;SDS011;3877;42.562;27.636;2023-03-04T02:25:38;42.10;;;28.60;;
7669;SDS011;3877;42.562;27.636;2023-03-04T02:28:12;36.77;;;24.80;;
7669;SDS011;3877;42.562;27.636;2023-03-04T02:30:39;35.77;;;24.50;;
7669;SDS011;3877;42.562;27.636;2023-03-04T02:33:09;32.63;;;24.17;;
7669;SDS011;3877;42.562;27.636;2023-03-04T02:35:41;36.47;;;24.20;;
7669;SDS011;3877;42.562;27.636;2023-03-04T02:38:08;36.43;;;24.57;;
7669;SDS011;3877;42.562;27.636;2023-03-04T02:40:36;34.43;;;24.03;;
7669;SDS011;3877;42.562;27.636;2023-03-04T02:43:07;36.67;;;24.10;;
7669;SDS011;3877;42.562;27.636;2023-03-04T02:45:37;34.27;;;23.13;;
7669;SDS011;3877;42.562;27.636;2023-03-04T02:48:08;33.80;;;23.03;;
7669;SDS011;3877;42.562;27.636;2023-03-04T02:50:38;31.50;;;22.47;;
7669;SDS011;3877;42.562;27.636;2023-03-04T02:53:08;35.03;;;22.47;;
7669;SDS011;3877;42.562;27.636;2023-03-04T02:55:35;32.00;;;23.20;;
7669;SDS011;3877;42.562;27.636;2023-03-04T02:58:03;30.97;;;21.97;;
7669;SDS011;3877;42.562;27.636;2023-03-04T03:00:30;30.97;;;20.97;;
7669;SDS011;3877;42.562;27.636;2023-03-04T03:02:58;26.27;;;21.17;;
7669;SDS011;3877;42.562;27.636;2023-03-04T03:05:26;28.93;;;21.70;;
7669;SDS011;3877;42.562;27.636;2023-03-04T03:07:56;28.23;;;20.47;;
7669;SDS011;3877;42.562;27.636;2023-03-04T03:10:23;29.37;;;19.97;;
7669;SDS011;3877;42.562;27.636;2023-03-04T03:12:51;30.57;;;22.40;;
7669;SDS011;3877;42.562;27.636;2023-03-04T03:15:18;29.23;;;21.53;;
7669;SDS011;3877;42.562;27.636;2023-03-04T03:17:45;31.47;;;21.57;;
7669;SDS011;3877;42.562;27.636;2023-03-04T03:20:14;30.87;;;22.23;;
7669;SDS011;3877;42.562;27.636;2023-03-04T03:22:42;27.97;;;20.70;;
7669;SDS011;3877;42.562;27.636;2023-03-04T03:25:10;29.67;;;21.67;;
7669;SDS011;3877;42.562;27.636;2023-03-04T03:27:38;33.13;;;21.57;;
7669;SDS011;3877;42.562;27.636;2023-03-04T03:30:07;29.50;;;21.20;;
7669;SDS011;3877;42.562;27.636;2023-03-04T03:32:37;28.13;;;20.37;;
7669;SDS011;3877;42.562;27.636;2023-03-04T03:35:04;27.00;;;19.13;;
7669;SDS011;3877;42.562;27.636;2023-03-04T03:37:33;27.10;;;19.07;;
7669;SDS011;3877;42.562;27.636;2023-03-04T03:40:00;28.70;;;19.90;;
7669;SDS011;3877;42.562;27.636;2023-03-04T03:42:28;30.20;;;20.87;;
7669;SDS011;3877;42.562;27.636;2023-03-04T03:44:55;31.70;;;22.53;;
7669;SDS011;3877;42.562;27.636;2023-03-04T03:47:22;31.13;;;21.73;;
7669;SDS011;3877;42.562;27.636;2023-03-04T03:49:49;31.37;;;22.37;;
7669;SDS011;3877;42.562;27.636;2023-03-04T03:52:16;31.13;;;22.97;;
7669;SDS011;3877;42.562;27.636;2023-03-04T03:54:45;36.97;;;25.17;;
7669;SDS011;3877;42.562;27.636;2023-03-04T03:57:13;32.97;;;24.03;;
7669;SDS011;3877;42.562;27.636;2023-03-04T03:59:40;38.83;;;25.37;;
7669;SDS011;3877;42.562;27.636;2023-03-04T04:02:07;39.83;;;27.17;;
7669;SDS011;3877;42.562;27.636;2023-03-04T04:04:34;39.97;;;28.63;;
7669;SDS011;3877;42.562;27.636;2023-03-04T04:07:02;40.40;;;27.93;;
7669;SDS011;3877;42.562;27.636;2023-03-04T04:09:29;38.47;;;28.20;;
7669;SDS011;3877;42.562;27.636;2023-03-04T04:11:58;38.30;;;27.43;;
7669;SDS011;3877;42.562;27.636;2023-03-04T04:14:25;34.07;;;25.07;;
7669;SDS011;3877;42.562;27.636;2023-03-04T04:16:52;36.60;;;22.30;;
7669;SDS011;3877;42.562;27.636;2023-03-04T04:19:19;30.37;;;20.90;;
7669;SDS011;3877;42.562;27.636;2023-03-04T04:21:47;29.40;;;19.80;;
7669;SDS011;3877;42.562;27.636;2023-03-04T04:24:15;26.63;;;18.13;;
7669;SDS011;3877;42.562;27.636;2023-03-04T04:26:42;26.37;;;18.37;;
7669;SDS011;3877;42.562;27.636;2023-03-04T04:29:12;27.67;;;18.33;;
7669;SDS011;3877;42.562;27.636;2023-03-04T04:31:41;27.77;;;18.20;;
7669;SDS011;3877;42.562;27.636;2023-03-04T04:34:08;25.60;;;18.63;;
7669;SDS011;3877;42.562;27.636;2023-03-04T04:36:35;24.90;;;17.87;;
7669;SDS011;3877;42.562;27.636;2023-03-04T04:39:02;29.03;;;18.43;;
7669;SDS011;3877;42.562;27.636;2023-03-04T04:41:30;25.67;;;17.70;;
7669;SDS011;3877;42.562;27.636;2023-03-04T04:44:01;26.37;;;18.80;;
7669;SDS011;3877;42.562;27.636;2023-03-04T04:46:30;23.90;;;17.10;;
7669;SDS011;3877;42.562;27.636;2023-03-04T04:48:57;23.27;;;16.47;;
7669;SDS011;3877;42.562;27.636;2023-03-04T04:51:24;24.53;;;16.73;;
7669;SDS011;3877;42.562;27.636;2023-03-04T04:53:52;22.77;;;16.37;;
7669;SDS011;3877;42.562;27.636;2023-03-04T04:56:20;23.77;;;16.90;;
7669;SDS011;3877;42.562;27.636;2023-03-04T04:58:50;25.77;;;17.67;;
7669;SDS011;3877;42.562;27.636;2023-03-04T05:01:19;28.07;;;17.47;;
7669;SDS011;3877;42.562;27.636;2023-03-04T05:03:48;23.47;;;17.40;;
7669;SDS011;3877;42.562;27.636;2023-03-04T05:06:17;28.13;;;18.70;;
7669;SDS011;3877;42.562;27.636;2023-03-04T05:08:46;24.47;;;17.93;;
7669;SDS011;3877;42.562;27.636;2023-03-04T05:11:13;26.30;;;18.27;;
7669;SDS011;3877;42.562;27.636;2023-03-04T05:13:40;24.37;;;18.10;;
7669;SDS011;3877;42.562;27.636;2023-03-04T05:16:08;25.37;;;18.40;;
7669;SDS011;3877;42.562;27.636;2023-03-04T05:18:35;27.30;;;18.33;;
7669;SDS011;3877;42.562;27.636;2023-03-04T05:21:04;29.17;;;19.67;;
7669;SDS011;3877;42.562;27.636;2023-03-04T05:23:32;25.57;;;18.23;;
7669;SDS011;3877;42.562;27.636;2023-03-04T05:26:01;25.73;;;19.33;;
7669;SDS011;3877;42.562;27.636;2023-03-04T05:28:29;23.10;;;17.53;;
7669;SDS011;3877;42.562;27.636;2023-03-04T05:30:57;24.33;;;17.90;;
7669;SDS011;3877;42.562;27.636;2023-03-04T05:33:24;26.80;;;17.90;;
7669;SDS011;3877;42.562;27.636;2023-03-04T05:35:51;26.93;;;17.43;;
7669;SDS011;3877;42.562;27.636;2023-03-04T05:38:21;24.20;;;17.77;;
7669;SDS011;3877;42.562;27.636;2023-03-04T05:40:48;24.13;;;17.03;;
7669;SDS011;3877;42.562;27.636;2023-03-04T05:43:15;23.63;;;17.07;;
7669;SDS011;3877;42.562;27.636;2023-03-04T05:45:42;23.97;;;16.90;;
7669;SDS011;3877;42.562;27.636;2023-03-04T05:48:10;23.77;;;17.50;;
7669;SDS011;3877;42.562;27.636;2023-03-04T05:50:37;23.87;;;17.93;;
7669;SDS011;3877;42.562;27.636;2023-03-04T05:53:04;23.43;;;17.57;;
7669;SDS011;3877;42.562;27.636;2023-03-04T05:55:33;23.33;;;17.67;;
7669;SDS011;3877;42.562;27.636;2023-03-04T05:58:00;28.37;;;21.17;;
7669;SDS011;3877;42.562;27.636;2023-03-04T06:00:27;25.43;;;18.10;;
7669;SDS011;3877;42.562;27.636;2023-03-04T06:02:54;26.53;;;17.47;;
7669;SDS011;3877;42.562;27.636;2023-03-04T06:05:23;25.27;;;17.03;;
7669;SDS011;3877;42.562;27.636;2023-03-04T06:07:50;22.57;;;16.70;;
7669;SDS011;3877;42.562;27.636;2023-03-04T06:10:17;22.17;;;16.77;;
7669;SDS011;3877;42.562;27.636;2023-03-04T06:12:46;24.73;;;18.17;;
7669;SDS011;3877;42.562;27.636;2023-03-04T06:15:13;24.07;;;17.53;;
7669;SDS011;3877;42.562;27.636;2023-03-04T06:17:41;21.53;;;17.20;;
7669;SDS011;3877;42.562;27.636;2023-03-04T06:20:08;21.40;;;17.23;;
7669;SDS011;3877;42.562;27.636;2023-03-04T06:22:37;23.43;;;17.20;;
7669;SDS011;3877;42.562;27.636;2023-03-04T06:25:05;22.80;;;17.33;;
7669;SDS011;3877;42.562;27.636;2023-03-04T06:27:33;26.53;;;17.33;;
7669;SDS011;3877;42.562;27.636;2023-03-04T06:30:02;24.40;;;17.60;;
7669;SDS011;3877;42.562;27.636;2023-03-04T06:32:29;23.40;;;17.67;;
7669;SDS011;3877;42.562;27.636;2023-03-04T06:34:56;23.53;;;17.37;;
7669;SDS011;3877;42.562;27.636;2023-03-04T06:37:24;23.57;;;16.93;;
7669;SDS011;3877;42.562;27.636;2023-03-04T06:39:51;23.50;;;18.67;;
7669;SDS011;3877;42.562;27.636;2023-03-04T06:42:18;25.73;;;18.10;;
7669;SDS011;3877;42.562;27.636;2023-03-04T06:44:45;25.87;;;18.53;;
7669;SDS011;3877;42.562;27.636;2023-03-04T06:47:16;26.43;;;18.47;;
7669;SDS011;3877;42.562;27.636;2023-03-04T06:49:43;25.93;;;16.53;;
7669;SDS011;3877;42.562;27.636;2023-03-04T06:52:10;21.70;;;15.50;;
7669;SDS011;3877;42.562;27.636;2023-03-04T06:54:38;21.00;;;16.27;;
7669;SDS011;3877;42.562;27.636;2023-03-04T06:57:05;24.07;;;16.33;;
7669;SDS011;3877;42.562;27.636;2023-03-04T06:59:32;20.93;;;15.93;;
7669;SDS011;3877;42.562;27.636;2023-03-04T07:01:59;23.47;;;17.23;;
7669;SDS011;3877;42.562;27.636;2023-03-04T07:04:28;24.67;;;17.80;;
7669;SDS011;3877;42.562;27.636;2023-03-04T07:06:55;24.20;;;19.70;;
7669;SDS011;3877;42.562;27.636;2023-03-04T07:09:22;27.03;;;19.07;;
7669;SDS011;3877;42.562;27.636;2023-03-04T07:11:50;27.07;;;19.30;;
7669;SDS011;3877;42.562;27.636;2023-03-04T07:14:17;26.83;;;19.00;;
7669;SDS011;3877;42.562;27.636;2023-03-04T07:16:44;26.57;;;19.30;;
7669;SDS011;3877;42.562;27.636;2023-03-04T07:19:11;24.93;;;18.77;;
7669;SDS011;3877;42.562;27.636;2023-03-04T07:21:40;26.07;;;18.80;;
7669;SDS011;3877;42.562;27.636;2023-03-04T07:24:07;25.50;;;17.90;;
7669;SDS011;3877;42.562;27.636;2023-03-04T07:26:34;25.40;;;18.83;;
7669;SDS011;3877;42.562;27.636;2023-03-04T07:29:02;29.73;;;20.50;;
7669;SDS011;3877;42.562;27.636;2023-03-04T07:31:30;28.00;;;19.40;;
7669;SDS011;3877;42.562;27.636;2023-03-04T07:33:58;34.87;;;21.87;;
7669;SDS011;3877;42.562;27.636;2023-03-04T07:36:27;27.37;;;19.70;;
7669;SDS011;3877;42.562;27.636;2023-03-04T07:38:55;28.80;;;19.77;;
7669;SDS011;3877;42.562;27.636;2023-03-04T07:41:23;28.57;;;21.40;;
7669;SDS011;3877;42.562;27.636;2023-03-04T07:43:52;34.47;;;23.73;;
7669;SDS011;3877;42.562;27.636;2023-03-04T07:46:21;32.53;;;20.83;;
7669;SDS011;3877;42.562;27.636;2023-03-04T07:48:49;34.17;;;21.03;;
7669;SDS011;3877;42.562;27.636;2023-03-04T07:51:17;37.03;;;23.03;;
7669;SDS011;3877;42.562;27.636;2023-03-04T07:53:46;43.77;;;25.40;;
7669;SDS011;3877;42.562;27.636;2023-03-04T07:56:18;37.73;;;23.20;;
7669;SDS011;3877;42.562;27.636;2023-03-04T07:58:47;30.77;;;21.97;;
7669;SDS011;3877;42.562;27.636;2023-03-04T08:01:15;30.83;;;22.63;;
7669;SDS011;3877;42.562;27.636;2023-03-04T08:03:43;46.90;;;32.17;;
7669;SDS011;3877;42.562;27.636;2023-03-04T08:06:11;44.77;;;25.77;;
7669;SDS011;3877;42.562;27.636;2023-03-04T08:08:40;47.80;;;29.50;;
7669;SDS011;3877;42.562;27.636;2023-03-04T08:11:09;41.10;;;24.60;;
7669;SDS011;3877;42.562;27.636;2023-03-04T08:13:39;30.17;;;20.50;;
7669;SDS011;3877;42.562;27.636;2023-03-04T08:16:07;29.97;;;21.50;;
7669;SDS011;3877;42.562;27.636;2023-03-04T08:18:35;25.60;;;19.13;;
7669;SDS011;3877;42.562;27.636;2023-03-04T08:21:06;32.50;;;20.03;;
7669;SDS011;3877;42.562;27.636;2023-03-04T08:23:35;31.13;;;18.80;;
7669;SDS011;3877;42.562;27.636;2023-03-04T08:26:04;24.17;;;16.27;;
7669;SDS011;3877;42.562;27.636;2023-03-04T08:28:33;22.37;;;15.30;;
7669;SDS011;3877;42.562;27.636;2023-03-04T08:31:01;20.03;;;15.07;;
7669;SDS011;3877;42.562;27.636;2023-03-04T08:33:29;21.13;;;15.13;;
7669;SDS011;3877;42.562;27.636;2023-03-04T08:35:57;18.73;;;14.70;;
7669;SDS011;3877;42.562;27.636;2023-03-04T08:38:24;25.07;;;14.30;;
7669;SDS011;3877;42.562;27.636;2023-03-04T08:40:51;19.43;;;14.47;;
7669;SDS011;3877;42.562;27.636;2023-03-04T08:43:19;20.10;;;14.43;;
7669;SDS011;3877;42.562;27.636;2023-03-04T08:45:46;24.27;;;14.90;;
7669;SDS011;3877;42.562;27.636;2023-03-04T08:48:16;24.33;;;13.57;;
7669;SDS011;3877;42.562;27.636;2023-03-04T08:50:44;18.67;;;12.80;;
7669;SDS011;3877;42.562;27.636;2023-03-04T08:53:11;19.60;;;14.20;;
7669;SDS011;3877;42.562;27.636;2023-03-04T08:55:39;21.37;;;15.27;;
7669;SDS011;3877;42.562;27.636;2023-03-04T08:58:07;23.10;;;16.03;;
7669;SDS011;3877;42.562;27.636;2023-03-04T09:00:37;20.37;;;14.60;;
7669;SDS011;3877;42.562;27.636;2023-03-04T09:03:07;24.90;;;14.80;;
7669;SDS011;3877;42.562;27.636;2023-03-04T09:05:37;22.33;;;14.13;;
7669;SDS011;3877;42.562;27.636;2023-03-04T09:08:04;19.10;;;13.93;;
7669;SDS011;3877;42.562;27.636;2023-03-04T09:10:32;25.47;;;14.30;;
7669;SDS011;3877;42.562;27.636;2023-03-04T09:12:59;25.97;;;13.77;;
7669;SDS011;3877;42.562;27.636;2023-03-04T09:15:26;33.30;;;15.10;;
7669;SDS011;3877;42.562;27.636;2023-03-04T09:17:54;19.80;;;14.73;;
7669;SDS011;3877;42.562;27.636;2023-03-04T09:20:22;19.40;;;14.93;;
7669;SDS011;3877;42.562;27.636;2023-03-04T09:22:50;26.53;;;17.23;;
7669;SDS011;3877;42.562;27.636;2023-03-04T09:25:17;23.53;;;15.03;;
7669;SDS011;3877;42.562;27.636;2023-03-04T09:27:45;25.03;;;15.80;;
7669;SDS011;3877;42.562;27.636;2023-03-04T09:30:13;21.13;;;15.30;;
7669;SDS011;3877;42.562;27.636;2023-03-04T09:32:40;21.97;;;15.23;;
7669;SDS011;3877;42.562;27.636;2023-03-04T09:35:07;24.67;;;16.63;;
7669;SDS011;3877;42.562;27.636;2023-03-04T09:37:35;21.67;;;15.30;;
7669;SDS011;3877;42.562;27.636;2023-03-04T09:40:04;21.57;;;16.97;;
7669;SDS011;3877;42.562;27.636;2023-03-04T09:42:34;25.80;;;16.00;;
7669;SDS011;3877;42.562;27.636;2023-03-04T09:45:10;26.37;;;17.10;;
7669;SDS011;3877;42.562;27.636;2023-03-04T09:47:41;27.67;;;16.13;;
7669;SDS011;3877;42.562;27.636;2023-03-04T09:50:11;20.00;;;15.00;;
7669;SDS011;3877;42.562;27.636;2023-03-04T09:52:42;27.70;;;16.80;;
7669;SDS011;3877;42.562;27.636;2023-03-04T09:55:22;25.20;;;15.83;;
7669;SDS011;3877;42.562;27.636;2023-03-04T09:57:55;22.93;;;16.10;;
7669;SDS011;3877;42.562;27.636;2023-03-04T10:00:30;28.20;;;16.57;;
7669;SDS011;3877;42.562;27.636;2023-03-04T10:03:05;21.70;;;15.80;;
7669;SDS011;3877;42.562;27.636;2023-03-04T10:05:41;25.90;;;16.97;;
7669;SDS011;3877;42.562;27.636;2023-03-04T10:11:10;33.83;;;18.70;;
7669;SDS011;3877;42.562;27.636;2023-03-04T10:13:42;20.97;;;16.03;;
7669;SDS011;3877;42.562;27.636;2023-03-04T10:16:20;26.73;;;16.33;;
7669;SDS011;3877;42.562;27.636;2023-03-04T10:18:52;26.00;;;17.13;;
7669;SDS011;3877;42.562;27.636;2023-03-04T10:21:25;31.53;;;16.93;;
7669;SDS011;3877;42.562;27.636;2023-03-04T10:23:56;25.37;;;17.00;;
7669;SDS011;3877;42.562;27.636;2023-03-04T10:26:28;28.83;;;17.57;;
7669;SDS011;3877;42.562;27.636;2023-03-04T10:28:57;25.47;;;17.27;;
7669;SDS011;3877;42.562;27.636;2023-03-04T10:31:32;41.23;;;19.90;;
7669;SDS011;3877;42.562;27.636;2023-03-04T10:34:01;24.30;;;16.43;;
7669;SDS011;3877;42.562;27.636;2023-03-04T10:36:33;25.50;;;17.67;;
7669;SDS011;3877;42.562;27.636;2023-03-04T10:39:09;27.20;;;17.97;;
7669;SDS011;3877;42.562;27.636;2023-03-04T10:41:42;28.47;;;16.93;;
7669;SDS011;3877;42.562;27.636;2023-03-04T10:44:13;27.70;;;17.60;;
7669;SDS011;3877;42.562;27.636;2023-03-04T10:46:42;23.17;;;17.30;;
7669;SDS011;3877;42.562;27.636;2023-03-04T10:49:12;24.40;;;17.13;;
7669;SDS011;3877;42.562;27.636;2023-03-04T10:51:42;27.20;;;16.95;;
7669;SDS011;3877;42.562;27.636;2023-03-04T10:54:16;26.30;;;16.77;;
7669;SDS011;3877;42.562;27.636;2023-03-04T10:56:54;27.87;;;16.80;;
7669;SDS011;3877;42.562;27.636;2023-03-04T10:59:31;25.37;;;17.23;;
7669;SDS011;3877;42.562;27.636;2023-03-04T11:02:18;35.03;;;17.83;;
7669;SDS011;3877;42.562;27.636;2023-03-04T11:04:48;32.23;;;18.27;;
7669;SDS011;3877;42.562;27.636;2023-03-04T11:07:18;24.87;;;16.40;;
7669;SDS011;3877;42.562;27.636;2023-03-04T11:09:46;29.47;;;17.50;;
7669;SDS011;3877;42.562;27.636;2023-03-04T11:12:15;23.60;;;16.40;;
7669;SDS011;3877;42.562;27.636;2023-03-04T11:14:45;31.17;;;18.10;;
7669;SDS011;3877;42.562;27.636;2023-03-04T11:17:18;22.20;;;16.20;;
7669;SDS011;3877;42.562;27.636;2023-03-04T11:19:52;21.83;;;16.57;;
7669;SDS011;3877;42.562;27.636;2023-03-04T11:22:23;23.47;;;16.63;;
7669;SDS011;3877;42.562;27.636;2023-03-04T11:24:58;22.77;;;16.87;;
7669;SDS011;3877;42.562;27.636;2023-03-04T11:27:35;27.60;;;17.27;;
7669;SDS011;3877;42.562;27.636;2023-03-04T11:30:20;22.67;;;16.80;;
7669;SDS011;3877;42.562;27.636;2023-03-04T11:32:55;22.23;;;16.20;;
7669;SDS011;3877;42.562;27.636;2023-03-04T11:35:33;20.47;;;14.63;;
7669;SDS011;3877;42.562;27.636;2023-03-04T11:38:11;21.63;;;13.00;;
7669;SDS011;3877;42.562;27.636;2023-03-04T11:40:43;18.60;;;12.25;;
7669;SDS011;3877;42.562;27.636;2023-03-04T11:43:15;20.03;;;13.97;;
7669;SDS011;3877;42.562;27.636;2023-03-04T11:48:48;23.50;;;14.80;;
7669;SDS011;3877;42.562;27.636;2023-03-04T11:51:28;21.20;;;15.07;;
7669;SDS011;3877;42.562;27.636;2023-03-04T11:54:07;21.73;;;14.67;;
7669;SDS011;3877;42.562;27.636;2023-03-04T11:56:44;35.40;;;18.50;;
7669;SDS011;3877;42.562;27.636;2023-03-04T12:02:17;44.97;;;29.57;;
7669;SDS011;3877;42.562;27.636;2023-03-04T12:04:58;59.07;;;27.07;;
7669;SDS011;3877;42.562;27.636;2023-03-04T12:07:53;45.27;;;21.90;;
7669;SDS011;3877;42.562;27.636;2023-03-04T12:10:35;47.03;;;26.27;;
7669;SDS011;3877;42.562;27.636;2023-03-04T12:13:21;36.90;;;20.47;;
7669;SDS011;3877;42.562;27.636;2023-03-04T12:16:01;28.10;;;19.37;;
7669;SDS011;3877;42.562;27.636;2023-03-04T12:18:57;26.47;;;19.23;;
7669;SDS011;3877;42.562;27.636;2023-03-04T12:21:52;32.67;;;19.57;;
7669;SDS011;3877;42.562;27.636;2023-03-04T12:24:33;26.90;;;16.37;;
7669;SDS011;3877;42.562;27.636;2023-03-04T12:27:13;18.13;;;12.40;;
7669;SDS011;3877;42.562;27.636;2023-03-04T12:29:48;26.33;;;15.37;;
7669;SDS011;3877;42.562;27.636;2023-03-04T12:32:28;40.47;;;24.70;;
7669;SDS011;3877;42.562;27.636;2023-03-04T12:41:03;35.90;;;21.83;;
7669;SDS011;3877;42.562;27.636;2023-03-04T12:43:46;30.03;;;18.43;;
7669;SDS011;3877;42.562;27.636;2023-03-04T12:46:22;20.03;;;12.20;;
7669;SDS011;3877;42.562;27.636;2023-03-04T12:51:53;22.93;;;14.30;;
7669;SDS011;3877;42.562;27.636;2023-03-04T12:54:30;22.60;;;14.87;;
7669;SDS011;3877;42.562;27.636;2023-03-04T12:56:59;30.50;;;18.23;;
7669;SDS011;3877;42.562;27.636;2023-03-04T12:59:33;12.77;;;9.17;;
7669;SDS011;3877;42.562;27.636;2023-03-04T13:04:57;24.77;;;15.07;;
7669;SDS011;3877;42.562;27.636;2023-03-04T13:07:35;38.10;;;19.97;;
7669;SDS011;3877;42.562;27.636;2023-03-04T13:10:09;13.93;;;10.43;;
7669;SDS011;3877;42.562;27.636;2023-03-04T13:12:45;23.77;;;15.10;;
7669;SDS011;3877;42.562;27.636;2023-03-04T13:18:03;28.53;;;18.87;;
7669;SDS011;3877;42.562;27.636;2023-03-04T13:21:07;20.80;;;11.83;;
7669;SDS011;3877;42.562;27.636;2023-03-04T13:23:48;18.83;;;13.07;;
7669;SDS011;3877;42.562;27.636;2023-03-04T13:26:20;14.97;;;9.90;;
7669;SDS011;3877;42.562;27.636;2023-03-04T13:28:53;20.90;;;12.57;;
7669;SDS011;3877;42.562;27.636;2023-03-04T13:37:30;23.63;;;12.40;;
7669;SDS011;3877;42.562;27.636;2023-03-04T13:43:25;23.90;;;13.90;;
7669;SDS011;3877;42.562;27.636;2023-03-04T13:49:15;16.67;;;10.33;;
7669;SDS011;3877;42.562;27.636;2023-03-04T13:51:50;14.50;;;8.97;;
7669;SDS011;3877;42.562;27.636;2023-03-04T13:54:20;23.13;;;13.50;;
7669;SDS011;3877;42.562;27.636;2023-03-04T13:59:44;12.60;;;8.77;;
7669;SDS011;3877;42.562;27.636;2023-03-04T14:02:15;18.47;;;9.93;;
7669;SDS011;3877;42.562;27.636;2023-03-04T14:04:56;28.77;;;16.23;;
7669;SDS011;3877;42.562;27.636;2023-03-04T14:07:27;25.00;;;13.83;;
7669;SDS011;3877;42.562;27.636;2023-03-04T14:10:01;28.53;;;12.57;;
7669;SDS011;3877;42.562;27.636;2023-03-04T14:12:35;22.20;;;13.57;;
7669;SDS011;3877;42.562;27.636;2023-03-04T14:15:17;17.40;;;10.23;;
7669;SDS011;3877;42.562;27.636;2023-03-04T14:17:51;12.37;;;8.90;;
7669;SDS011;3877;42.562;27.636;2023-03-04T14:20:26;13.63;;;8.70;;
7669;SDS011;3877;42.562;27.636;2023-03-04T14:22:55;15.27;;;9.30;;
7669;SDS011;3877;42.562;27.636;2023-03-04T14:25:24;15.30;;;9.63;;
7669;SDS011;3877;42.562;27.636;2023-03-04T14:28:02;11.83;;;9.43;;
7669;SDS011;3877;42.562;27.636;2023-03-04T14:30:31;11.90;;;7.07;;
7669;SDS011;3877;42.562;27.636;2023-03-04T14:32:58;11.07;;;7.57;;
7669;SDS011;3877;42.562;27.636;2023-03-04T14:35:26;12.03;;;8.77;;
7669;SDS011;3877;42.562;27.636;2023-03-04T14:37:57;11.77;;;6.90;;
7669;SDS011;3877;42.562;27.636;2023-03-04T14:40:27;11.83;;;7.93;;
7669;SDS011;3877;42.562;27.636;2023-03-04T14:43:00;11.50;;;8.63;;
7669;SDS011;3877;42.562;27.636;2023-03-04T14:45:31;24.10;;;21.43;;
7669;SDS011;3877;42.562;27.636;2023-03-04T14:47:58;17.13;;;11.70;;
7669;SDS011;3877;42.562;27.636;2023-03-04T14:50:30;14.03;;;9.00;;
7669;SDS011;3877;42.562;27.636;2023-03-04T14:55:53;8.90;;;7.07;;
7669;SDS011;3877;42.562;27.636;2023-03-04T14:58:24;11.13;;;7.37;;
7669;SDS011;3877;42.562;27.636;2023-03-04T15:01:02;11.23;;;7.67;;
7669;SDS011;3877;42.562;27.636;2023-03-04T15:03:31;8.17;;;6.37;;
7669;SDS011;3877;42.562;27.636;2023-03-04T15:06:05;14.07;;;7.43;;
7669;SDS011;3877;42.562;27.636;2023-03-04T15:08:41;11.77;;;8.50;;
7669;SDS011;3877;42.562;27.636;2023-03-04T15:11:12;11.33;;;7.10;;
7669;SDS011;3877;42.562;27.636;2023-03-04T15:13:49;11.23;;;7.07;;
7669;SDS011;3877;42.562;27.636;2023-03-04T15:16:18;10.63;;;6.70;;
7669;SDS011;3877;42.562;27.636;2023-03-04T15:18:55;12.17;;;6.10;;
7669;SDS011;3877;42.562;27.636;2023-03-04T15:21:28;14.30;;;8.23;;
7669;SDS011;3877;42.562;27.636;2023-03-04T15:24:01;14.07;;;7.30;;
7669;SDS011;3877;42.562;27.636;2023-03-04T15:26:29;9.73;;;7.50;;
7669;SDS011;3877;42.562;27.636;2023-03-04T15:28:59;10.50;;;7.27;;
7669;SDS011;3877;42.562;27.636;2023-03-04T15:31:26;14.97;;;7.13;;
7669;SDS011;3877;42.562;27.636;2023-03-04T15:33:54;14.30;;;8.87;;
7669;SDS011;3877;42.562;27.636;2023-03-04T15:36:21;14.07;;;9.90;;